航空気象通報

ウインドサーファーのための航空気象通報による風予報です。

10/9-10/11の航空気象通報

2018年10月09日 23時35分09秒 | お天気
羽田空港
TAF RJTT 091105Z 0912/1018 08010KT 9999 FEW015
BECMG 0913/0915 36006KT
BECMG 1000/1003 12006KT
BECMG 1003/1006 18014KT
BECMG 1015/1018 34008KT
日本時間9日21-22時:080度から10ノットの風
22-24時:風が変化
10日00-09時:360度から6ノットの風
09-12時:風が変化
12時:120度から6ノットの風
12-15時:風が変化
15-24時:180度から14ノットの風
11日00-03時:風が変化
03時:340度から8ノットの風


静岡空港
TAF RJNS 091106Z 0912/1018 33004KT 9999 FEW015 SCT030
BECMG 0922/1000 14006KT
TEMPO 1009/1012 FEW005 BKN008
BECMG 1009/1012 32004KT
TEMPO 1012/1018 2500 SHRA BR FEW003 BKN005
日本時間9日21時-10日07時:330度から4ノットの風
07-09時:風が変化
09-18時:140度から6ノットの風
18-21時:風が変化
21時-11日03時:320度から4ノットの風


福岡空港
TAF RJFF 091108Z 0912/1018 15005KT 9999 FEW030
BECMG 1000/1003 31008KT
TEMPO 1006/1009 4000 -SHRA BR
日本時間9日21時-10日09時:150度から5ノットの風
09-12時:風が変化
12時-11日03時:310度から8ノットの風

但し、10日15-18時の間:時々

那覇空港
TAF ROAH 091117Z 0912/1018 03005KT 9999 FEW020
日本時間9日21時-11日03時:030度から5ノットの風


石垣空港
TAF ROIG 091118Z 0912/1018 04010KT 9999 FEW020 SCT030
日本時間9日21時-11日03時:040度から10ノットの風


マウイのカフルイ空港
PHOG 091120Z 0912/1012 07010KT P6SM VCSH SCT022 BKN050
FM091500 05008KT P6SM VCSH FEW025 SCT050
FM092000 05015G22KT P6SM FEW030 SCT050
FM100500 05012G18KT P6SM FEW030 SCT050
FM100800 07012KT P6SM FEW030 SCT060 AMD LTD TO VIS AND WIND TIL 091600
ハワイ時間9日02-05時:070度から10ノットの風

05-10時:050度から8ノットの風
10-19時:050度から15ノット、突風22ノット
19-22時:050度から12ノット、突風18ノット
22時-10日02時:070度から12ノットの風


サイパン空港
PGSN 091135Z 0912/1012 08011KT P6SM FEW015 BKN150
FM092000 09014KT P6SM VCSH SCT020 SCT040
マリアナ時間9日22時-10日06時:080度から11ノットの風

06-22時:090度から14ノットの風
ジャンル:
お天気
コメント   この記事についてブログを書く
« 10/7-10/9の航空気象通報 | トップ | 10/12-10/14の航空気象通報 »
最近の画像もっと見る

コメントを投稿

ブログ作成者から承認されるまでコメントは反映されません。

お天気」カテゴリの最新記事